Time;durP1;ratioP1;P1;durP2;ratioP2;P2;SDS_P1;SDS_P2;PMS_P1;PMS_P2;Temp;Humidity;BMP_temperature;BMP_pressure;BME280_temperature;BME280_humidity;BME280_pressure;Samples;Min_cycle;Max_cycle;Signal;HPM_P1;HPM_P2
2022/01/21 00:01:15;;;;;;;15.57;1.98;;;2.80;99.90;;;;;;5031303;28;20056;-77
2022/01/21 00:03:41;;;;;;;14.23;1.65;;;2.90;99.90;;;;;;5046265;28;20099;-77
2022/01/21 00:06:07;;;;;;;15.45;1.70;;;2.90;99.90;;;;;;5047984;28;20061;-77
2022/01/21 00:08:40;;;;;;;20.08;1.77;;;3.00;99.90;;;;;;5030052;28;20128;-77
2022/01/21 00:11:06;;;;;;;11.35;1.73;;;3.10;99.90;;;;;;5031101;28;20041;-77
2022/01/21 00:13:35;;;;;;;8.48;1.38;;;3.10;99.90;;;;;;5047647;28;20520;-77
2022/01/21 00:16:02;;;;;;;5.90;1.33;;;3.20;99.90;;;;;;5046022;28;20077;-80
2022/01/21 00:18:28;;;;;;;4.40;0.82;;;3.20;99.90;;;;;;5049237;28;20167;-78
2022/01/21 00:31:50;;;;;;;6.18;0.73;;;3.00;99.90;;;;;;5047449;28;20058;-78
2022/01/21 00:34:16;;;;;;;3.88;0.50;;;2.90;99.90;;;;;;5045855;28;20057;-78
2022/01/21 00:36:42;;;;;;;6.95;0.80;;;2.90;99.90;;;;;;5030187;28;20076;-78
2022/01/21 00:39:07;;;;;;;6.50;0.70;;;2.90;99.90;;;;;;5046537;28;20387;-78
2022/01/21 00:41:39;;;;;;;4.38;0.85;;;2.90;99.90;;;;;;5045714;28;20387;-78
2022/01/21 00:44:04;;;;;;;7.72;0.80;;;3.80;99.90;;;;;;5031390;28;20033;-78
2022/01/21 00:46:30;;;;;;;10.55;1.35;;;2.70;99.90;;;;;;5028726;28;20118;-78
2022/01/21 00:48:56;;;;;;;7.10;1.05;;;2.60;99.90;;;;;;5031047;28;20075;-78
2022/01/21 00:51:21;;;;;;;5.28;0.70;;;3.70;99.90;;;;;;5029552;28;20041;-78
2022/01/21 00:53:47;;;;;;;5.28;0.70;;;2.50;99.90;;;;;;5047055;28;20052;-78
2022/01/21 00:56:13;;;;;;;5.80;0.57;;;2.40;99.90;;;;;;5046222;28;20470;-78
2022/01/21 00:58:39;;;;;;;12.10;0.82;;;2.40;99.90;;;;;;5029365;28;20049;-78
2022/01/21 01:01:04;;;;;;;2.60;0.50;;;2.30;99.90;;;;;;4997523;28;20552;-78
2022/01/21 01:03:30;;;;;;;5.32;0.65;;;2.30;99.90;;;;;;5045026;28;20086;-78
2022/01/21 01:05:56;;;;;;;5.95;0.85;;;2.40;99.90;;;;;;5046709;28;20080;-78
2022/01/21 01:08:22;;;;;;;6.20;1.00;;;2.70;99.90;;;;;;5045552;28;20221;-78
2022/01/21 01:21:36;;;;;;;17.65;1.60;;;2.40;99.90;;;;;;5010992;28;20052;-78
2022/01/21 01:29:20;;;;;;;10.13;1.02;;;2.40;99.90;;;;;;5044939;28;20047;-78
2022/01/21 01:31:47;;;;;;;13.10;1.85;;;2.40;99.90;;;;;;5046340;28;20444;-78
2022/01/21 01:34:14;;;;;;;15.00;1.52;;;2.40;99.90;;;;;;5044982;28;20049;-78
2022/01/21 01:36:46;;;;;;;9.52;1.45;;;2.50;99.90;;;;;;5046874;28;20131;-78
2022/01/21 01:39:42;;;;;;;9.43;1.37;;;2.40;99.90;;;;;;5029256;28;20037;-78
2022/01/21 01:50:26;;;;;;;11.02;1.05;;;2.30;99.90;;;;;;5046020;28;20053;-78
2022/01/21 01:52:52;;;;;;;17.00;1.50;;;2.30;99.90;;;;;;5047566;28;20094;-78
2022/01/21 01:55:17;;;;;;;18.73;1.38;;;2.30;99.90;;;;;;5045872;28;20037;-78
2022/01/21 01:57:45;;;;;;;11.18;1.17;;;2.40;99.90;;;;;;5047610;28;20045;-78
2022/01/21 02:00:11;;;;;;;11.55;1.08;;;2.40;99.90;;;;;;5046362;28;20410;-78
2022/01/21 02:02:36;;;;;;;6.68;0.70;;;2.40;99.90;;;;;;5046601;28;20053;-77
2022/01/21 02:05:02;;;;;;;5.47;0.52;;;2.50;99.90;;;;;;5028655;28;20048;-77
2022/01/21 02:07:28;;;;;;;4.80;1.33;;;2.50;99.90;;;;;;5044529;28;20076;-77
2022/01/21 02:09:54;;;;;;;7.07;0.60;;;2.50;99.90;;;;;;5029147;28;20079;-77
2022/01/21 02:12:19;;;;;;;5.97;1.08;;;2.40;99.90;;;;;;5043767;28;20106;-77
2022/01/21 02:14:50;;;;;;;2.95;0.52;;;2.40;99.90;;;;;;5029583;28;20049;-77
2022/01/21 02:21:27;;;;;;;7.63;0.68;;;2.30;99.90;;;;;;5028610;28;20230;-77
2022/01/21 02:22:51;;;;;;;4.22;0.43;;;2.20;99.90;;;;;;5046015;28;20422;-77
2022/01/21 02:25:20;;;;;;;3.83;0.70;;;2.10;99.90;;;;;;5044131;28;20053;-77
2022/01/21 02:27:52;;;;;;;7.72;0.70;;;2.10;99.90;;;;;;5029158;28;20132;-77
2022/01/21 02:30:20;;;;;;;3.63;0.30;;;2.00;99.90;;;;;;5044969;28;20072;-77
2022/01/21 02:32:49;;;;;;;8.48;0.85;;;2.00;99.90;;;;;;5044085;28;20094;-77
2022/01/21 02:35:16;;;;;;;11.38;1.60;;;2.00;99.90;;;;;;5045315;28;20056;-77
2022/01/21 02:37:43;;;;;;;8.13;0.82;;;1.90;99.90;;;;;;5026971;28;20041;-76
2022/01/21 02:40:10;;;;;;;7.55;1.05;;;2.00;99.90;;;;;;5044952;28;20053;-76
2022/01/21 02:42:36;;;;;;;11.27;0.77;;;2.00;99.90;;;;;;5027153;28;20041;-76
2022/01/21 02:45:04;;;;;;;4.85;0.60;;;2.00;99.90;;;;;;5044098;28;20099;-76
2022/01/21 02:47:30;;;;;;;11.20;0.77;;;2.00;99.90;;;;;;5027869;28;20056;-76
2022/01/21 02:49:56;;;;;;;10.55;0.70;;;2.10;99.90;;;;;;5043569;28;20045;-76
2022/01/21 02:52:25;;;;;;;10.20;0.77;;;2.10;99.90;;;;;;5044778;28;20064;-76
2022/01/21 02:54:51;;;;;;;3.97;0.77;;;2.20;99.90;;;;;;5043303;28;20458;-76
2022/01/21 02:57:17;;;;;;;5.47;0.55;;;2.20;99.90;;;;;;5028674;28;20069;-76
2022/01/21 02:59:43;;;;;;;5.93;0.70;;;2.30;99.90;;;;;;5043566;28;20084;-76
2022/01/21 03:02:09;;;;;;;6.80;0.95;;;2.30;99.90;;;;;;5044364;28;20048;-77
2022/01/21 03:04:53;;;;;;;10.68;0.80;;;2.30;99.90;;;;;;5044514;28;20040;-77
2022/01/21 03:07:19;;;;;;;4.05;0.50;;;2.30;99.90;;;;;;5013467;28;20040;-77
2022/01/21 03:09:44;;;;;;;1.65;0.30;;;2.30;99.90;;;;;;5044885;28;20453;-77
2022/01/21 03:12:10;;;;;;;3.92;0.43;;;2.30;99.90;;;;;;5043097;28;20095;-77
2022/01/21 03:14:36;;;;;;;3.72;0.40;;;2.30;99.90;;;;;;5028161;28;20045;-76
2022/01/21 03:17:02;;;;;;;2.03;0.30;;;2.30;99.90;;;;;;5010806;28;20056;-76
2022/01/21 03:19:27;;;;;;;3.47;0.30;;;2.30;99.90;;;;;;5011675;28;20052;-76
2022/01/21 03:21:53;;;;;;;3.30;0.30;;;2.30;99.90;;;;;;5044255;28;20099;-76
2022/01/21 03:24:19;;;;;;;9.25;0.82;;;2.30;99.90;;;;;;5043703;28;20512;-76
2022/01/21 03:26:44;;;;;;;7.75;0.60;;;2.40;99.90;;;;;;5044705;28;20130;-76
2022/01/21 03:29:10;;;;;;;5.50;0.45;;;2.40;99.90;;;;;;5043097;28;20049;-76
2022/01/21 03:31:36;;;;;;;4.80;0.50;;;2.50;99.90;;;;;;5011760;28;20044;-76
2022/01/21 03:34:03;;;;;;;11.75;3.47;;;2.80;99.90;;;;;;5026616;28;20079;-76
2022/01/21 03:36:30;;;;;;;6.85;1.13;;;2.50;99.90;;;;;;5027503;28;20049;-76
2022/01/21 03:38:56;;;;;;;7.05;0.55;;;2.50;99.90;;;;;;5044048;28;20045;-76
2022/01/21 03:41:22;;;;;;;4.22;0.70;;;2.50;99.90;;;;;;5026569;28;20049;-77
2022/01/21 03:43:49;;;;;;;6.45;0.75;;;2.50;99.90;;;;;;5027881;28;20045;-77
2022/01/21 03:46:15;;;;;;;2.50;0.50;;;2.40;99.90;;;;;;5026430;28;20053;-78
2022/01/21 03:48:46;;;;;;;11.68;1.08;;;2.40;99.90;;;;;;5044881;28;20559;-77
2022/01/21 03:51:11;;;;;;;8.13;0.70;;;2.30;99.90;;;;;;5026595;28;20051;-77
2022/01/21 03:53:37;;;;;;;4.97;0.73;;;2.30;99.90;;;;;;5043867;28;20041;-77
2022/01/21 03:56:03;;;;;;;4.28;0.68;;;2.20;99.90;;;;;;5028043;28;20045;-78
2022/01/21 03:58:29;;;;;;;5.65;0.80;;;2.10;99.90;;;;;;5030505;28;20044;-77
2022/01/21 04:00:55;;;;;;;4.80;0.57;;;2.10;99.90;;;;;;5015032;28;20048;-77
2022/01/21 04:03:22;;;;;;;9.82;1.73;;;2.00;99.90;;;;;;5046355;28;20052;-78
2022/01/21 04:05:48;;;;;;;11.93;1.42;;;2.00;99.90;;;;;;5014942;28;20078;-77
2022/01/21 04:08:14;;;;;;;9.63;0.60;;;2.00;99.90;;;;;;4997485;28;20409;-77
2022/01/21 04:10:44;;;;;;;11.25;0.80;;;2.20;99.90;;;;;;5047500;28;20476;-77
2022/01/21 04:13:14;;;;;;;8.80;0.70;;;2.00;99.90;;;;;;5047570;28;20052;-77
2022/01/21 04:15:51;;;;;;;11.50;0.95;;;2.00;99.90;;;;;;5046718;28;20190;-77
2022/01/21 04:18:18;;;;;;;6.10;0.73;;;1.90;99.90;;;;;;5047928;28;20557;-77
2022/01/21 04:20:46;;;;;;;10.50;0.80;;;1.90;99.90;;;;;;5046697;28;20354;-77
2022/01/21 04:23:13;;;;;;;5.18;0.70;;;1.80;99.90;;;;;;5030646;28;20064;-77
2022/01/21 04:25:39;;;;;;;6.40;0.82;;;1.80;99.90;;;;;;5030313;28;20076;-77
2022/01/21 04:28:06;;;;;;;6.60;1.50;;;2.90;99.90;;;;;;5046285;28;20049;-77
2022/01/21 04:30:32;;;;;;;6.95;0.93;;;2.30;99.90;;;;;;5046888;28;20083;-77
2022/01/21 04:32:58;;;;;;;6.60;0.52;;;1.70;99.90;;;;;;5029785;28;20390;-77
2022/01/21 04:35:24;;;;;;;6.30;0.60;;;1.60;99.90;;;;;;5015087;28;20581;-77
2022/01/21 04:37:55;;;;;;;8.98;0.90;;;1.60;99.90;;;;;;5029253;28;20060;-77
2022/01/21 04:40:24;;;;;;;5.75;1.00;;;1.50;99.90;;;;;;5047094;28;20462;-77
2022/01/21 04:48:18;;;;;;;4.07;0.57;;;1.50;99.90;;;;;;5047051;28;20560;-76
2022/01/21 04:53:39;;;;;;;13.05;1.45;;;1.50;99.90;;;;;;5037605;28;20052;-77
2022/01/21 04:56:05;;;;;;;7.60;1.10;;;1.50;99.90;;;;;;5030066;28;20053;-77
2022/01/21 04:58:31;;;;;;;8.30;1.05;;;1.60;99.90;;;;;;5045838;28;20041;-77
2022/01/21 05:00:57;;;;;;;6.63;0.90;;;2.50;99.90;;;;;;4997424;28;20053;-77
2022/01/21 05:03:23;;;;;;;11.63;1.33;;;3.00;99.90;;;;;;5045594;28;20121;-77
2022/01/21 05:05:48;;;;;;;9.43;0.80;;;1.70;99.90;;;;;;5030208;28;20059;-77
2022/01/21 05:08:53;;;;;;;9.00;0.95;;;1.70;99.90;;;;;;5028636;28;20051;-77
2022/01/21 05:11:06;;;;;;;6.38;0.73;;;2.20;99.90;;;;;;5045521;28;20053;-77
2022/01/21 05:13:39;;;;;;;5.93;0.80;;;1.80;99.90;;;;;;5048008;28;20551;-77
2022/01/21 05:16:11;;;;;;;14.45;1.38;;;1.80;99.90;;;;;;5046840;28;20033;-77
2022/01/21 05:18:37;;;;;;;8.60;1.27;;;1.90;99.90;;;;;;5047520;28;20128;-76
2022/01/21 05:21:03;;;;;;;9.38;0.82;;;1.90;99.90;;;;;;5047094;28;20132;-77
2022/01/21 05:23:29;;;;;;;12.05;0.88;;;2.00;99.90;;;;;;5047173;28;20124;-76
2022/01/21 05:25:55;;;;;;;13.55;0.90;;;2.60;99.90;;;;;;5045845;28;20048;-77
2022/01/21 05:28:20;;;;;;;2.92;0.43;;;2.00;99.90;;;;;;5046776;28;20041;-76
2022/01/21 05:30:46;;;;;;;8.60;0.60;;;2.00;99.90;;;;;;5047788;28;20095;-77
2022/01/21 05:33:12;;;;;;;6.38;0.95;;;2.00;99.90;;;;;;5046645;28;20107;-78
2022/01/21 05:35:38;;;;;;;6.07;0.73;;;2.00;99.90;;;;;;5045982;28;20486;-76
2022/01/21 05:38:03;;;;;;;15.30;1.08;;;2.00;99.90;;;;;;5044815;28;20087;-77
2022/01/21 05:40:29;;;;;;;13.10;0.95;;;2.00;99.90;;;;;;5046555;28;20041;-77
2022/01/21 05:42:56;;;;;;;5.22;0.68;;;2.00;99.90;;;;;;5045929;28;20072;-77
2022/01/21 05:48:06;;;;;;;9.05;0.77;;;2.00;99.90;;;;;;5047624;28;20412;-77
2022/01/21 05:50:31;;;;;;;10.10;0.98;;;2.10;99.90;;;;;;5045851;28;20124;-77
2022/01/21 05:53:01;;;;;;;10.73;0.85;;;2.80;99.90;;;;;;5047031;28;20124;-76
2022/01/21 05:55:27;;;;;;;17.15;1.33;;;2.20;99.90;;;;;;5045325;28;20502;-78
2022/01/21 05:57:52;;;;;;;31.42;1.45;;;2.30;99.90;;;;;;5044915;28;20045;-78
2022/01/21 06:00:18;;;;;;;12.15;1.15;;;2.30;99.90;;;;;;5046829;28;20036;-78
2022/01/21 06:02:44;;;;;;;22.23;1.13;;;2.30;99.90;;;;;;5028361;28;20053;-79
2022/01/21 06:05:10;;;;;;;8.80;0.77;;;2.30;99.90;;;;;;5029385;28;20045;-76
2022/01/21 06:07:36;;;;;;;9.80;0.70;;;4.00;99.90;;;;;;5045986;28;20390;-78
2022/01/21 06:10:02;;;;;;;13.73;1.27;;;2.30;99.90;;;;;;5046370;28;20429;-77
2022/01/21 06:12:28;;;;;;;14.25;1.20;;;2.30;99.90;;;;;;5044591;28;20564;-77
2022/01/21 06:14:54;;;;;;;5.65;0.60;;;2.50;99.90;;;;;;5046277;28;20077;-77
2022/01/21 06:17:19;;;;;;;7.30;0.50;;;2.30;99.90;;;;;;5045203;28;20048;-78
2022/01/21 06:19:45;;;;;;;10.27;0.93;;;2.30;99.90;;;;;;5010844;28;20056;-77
2022/01/21 06:22:12;;;;;;;18.98;1.20;;;2.30;99.90;;;;;;5045535;28;20142;-78
2022/01/21 06:24:38;;;;;;;15.10;0.90;;;2.40;99.90;;;;;;5045295;28;20056;-78
2022/01/21 06:27:04;;;;;;;13.32;1.25;;;3.10;99.90;;;;;;5046652;28;20044;-78
2022/01/21 06:29:31;;;;;;;11.20;0.70;;;2.40;99.90;;;;;;5045590;28;20049;-77
2022/01/21 06:31:56;;;;;;;7.97;1.08;;;2.40;99.90;;;;;;5045816;28;20048;-78
2022/01/21 06:34:22;;;;;;;8.65;0.88;;;2.40;99.90;;;;;;5028185;28;20128;-79
2022/01/21 06:36:48;;;;;;;6.68;0.63;;;2.40;99.90;;;;;;5027303;28;20462;-78
2022/01/21 06:39:14;;;;;;;10.60;0.80;;;2.40;99.90;;;;;;5046374;28;20044;-76
2022/01/21 06:41:40;;;;;;;11.10;1.10;;;2.40;99.90;;;;;;5045099;28;20137;-76
2022/01/21 06:44:07;;;;;;;4.63;0.63;;;2.30;99.90;;;;;;5045215;28;20501;-76
2022/01/21 06:46:33;;;;;;;3.38;0.57;;;3.00;99.90;;;;;;5045394;28;20049;-77
2022/01/21 06:48:59;;;;;;;7.07;0.73;;;2.30;99.90;;;;;;5044193;28;20049;-77
2022/01/21 06:51:24;;;;;;;5.05;0.73;;;2.30;99.90;;;;;;5011277;28;20110;-76
2022/01/21 06:53:50;;;;;;;11.50;0.93;;;2.20;99.90;;;;;;5045410;28;20055;-76
2022/01/21 06:56:16;;;;;;;3.70;0.60;;;2.40;99.90;;;;;;5045062;28;20406;-76
2022/01/21 06:58:42;;;;;;;15.43;1.00;;;2.20;99.90;;;;;;5010709;28;20033;-77
2022/01/21 07:01:07;;;;;;;11.18;1.08;;;2.20;99.90;;;;;;5044949;28;20132;-76
2022/01/21 07:03:33;;;;;;;9.80;0.68;;;2.10;99.90;;;;;;5045328;28;20102;-76
2022/01/21 07:05:59;;;;;;;4.75;0.95;;;2.10;99.90;;;;;;5045695;28;20055;-76
2022/01/21 07:08:26;;;;;;;8.32;1.25;;;2.10;99.90;;;;;;5044318;28;20049;-76
2022/01/21 07:10:52;;;;;;;13.32;0.95;;;2.00;99.90;;;;;;5043668;28;20075;-76
2022/01/21 07:13:17;;;;;;;8.82;0.95;;;2.00;99.90;;;;;;5044998;28;20234;-76
2022/01/21 07:15:43;;;;;;;10.82;1.20;;;1.90;99.90;;;;;;5043323;28;20142;-76
2022/01/21 07:18:09;;;;;;;21.58;1.80;;;1.90;99.90;;;;;;5044697;28;20043;-76
2022/01/21 07:20:35;;;;;;;9.35;1.77;;;1.90;99.90;;;;;;5043743;28;20083;-76
2022/01/21 07:23:00;;;;;;;21.88;1.88;;;1.90;99.90;;;;;;5027613;28;20386;-76
2022/01/21 07:25:27;;;;;;;7.93;1.90;;;1.90;99.90;;;;;;5043949;28;20458;-76
2022/01/21 07:27:53;;;;;;;8.82;1.25;;;2.00;99.90;;;;;;5027066;28;20049;-76
2022/01/21 07:30:19;;;;;;;8.73;1.80;;;2.00;99.90;;;;;;5013047;28;20045;-77
2022/01/21 07:32:46;;;;;;;6.65;1.20;;;2.10;99.90;;;;;;5013613;28;20102;-76
2022/01/21 07:35:14;;;;;;;15.85;1.75;;;2.10;99.90;;;;;;5048655;28;20456;-75
2022/01/21 07:37:40;;;;;;;14.05;0.90;;;2.90;99.90;;;;;;5047228;28;20049;-76
2022/01/21 07:40:07;;;;;;;16.95;1.63;;;2.20;99.90;;;;;;5049128;28;20039;-76
2022/01/21 07:42:33;;;;;;;10.15;1.40;;;2.30;99.90;;;;;;5048905;28;20107;-76
2022/01/21 07:44:59;;;;;;;18.73;1.98;;;2.30;99.90;;;;;;5047479;28;20057;-76
2022/01/21 07:47:25;;;;;;;6.80;1.00;;;2.30;99.90;;;;;;5050003;28;20039;-76
2022/01/21 07:49:51;;;;;;;12.48;1.73;;;2.50;99.90;;;;;;5048737;28;20531;-76
2022/01/21 07:52:17;;;;;;;8.80;0.75;;;2.30;99.90;;;;;;5049500;28;20064;-76
2022/01/21 07:54:43;;;;;;;10.00;1.27;;;2.30;99.90;;;;;;5046775;28;20049;-76
2022/01/21 07:57:10;;;;;;;14.73;1.58;;;2.30;99.90;;;;;;5047460;28;20052;-76
2022/01/21 07:59:36;;;;;;;12.48;1.10;;;2.30;99.90;;;;;;5048835;28;20120;-76
2022/01/21 08:02:02;;;;;;;17.70;1.85;;;2.40;99.90;;;;;;5047103;28;20037;-76
2022/01/21 08:04:28;;;;;;;8.90;1.92;;;2.40;99.90;;;;;;5048351;28;20112;-76
2022/01/21 08:06:54;;;;;;;10.15;1.30;;;2.40;99.90;;;;;;5046328;28;20055;-76
2022/01/21 08:09:24;;;;;;;13.70;1.95;;;2.50;99.90;;;;;;5031690;28;20041;-76
2022/01/21 08:11:53;;;;;;;11.10;1.23;;;2.70;99.90;;;;;;5046843;28;20053;-76
2022/01/21 08:14:20;;;;;;;22.92;1.10;;;2.50;99.90;;;;;;5047556;28;20045;-76
2022/01/21 08:16:46;;;;;;;17.98;1.77;;;2.50;99.90;;;;;;5047412;28;20068;-77
2022/01/21 08:19:13;;;;;;;5.57;1.05;;;2.50;99.90;;;;;;5047078;28;20045;-77
2022/01/21 08:21:39;;;;;;;15.73;1.25;;;2.50;99.90;;;;;;5047350;28;20087;-76
2022/01/21 08:24:07;;;;;;;18.50;1.60;;;2.50;99.90;;;;;;5030377;28;20044;-76
2022/01/21 08:26:34;;;;;;;14.45;1.35;;;2.50;99.90;;;;;;5047683;28;20458;-77
2022/01/21 08:29:01;;;;;;;9.23;0.88;;;2.50;99.90;;;;;;5046223;28;20068;-75
2022/01/21 08:31:27;;;;;;;12.38;1.48;;;3.30;99.90;;;;;;5014570;28;20107;-76
2022/01/21 08:33:53;;;;;;;17.42;2.40;;;2.60;99.90;;;;;;5046441;28;20088;-76
2022/01/21 08:36:20;;;;;;;9.45;1.52;;;2.60;99.90;;;;;;5046411;28;20052;-77
2022/01/21 08:38:46;;;;;;;20.33;2.38;;;2.70;99.90;;;;;;5030461;28;20037;-78
2022/01/21 08:41:12;;;;;;;21.58;1.92;;;2.80;99.90;;;;;;5045087;28;20057;-77
2022/01/21 08:43:38;;;;;;;21.25;2.13;;;2.90;99.90;;;;;;5013517;28;20049;-78
2022/01/21 08:46:04;;;;;;;8.77;1.63;;;3.00;99.90;;;;;;5046094;28;20084;-77
2022/01/21 08:48:32;;;;;;;13.23;1.48;;;4.80;99.90;;;;;;5047142;28;20073;-77
2022/01/21 08:51:01;;;;;;;20.80;1.67;;;3.20;99.90;;;;;;5029681;28;20052;-77
2022/01/21 08:53:36;;;;;;;14.50;1.55;;;3.40;99.90;;;;;;5045937;28;20048;-78
2022/01/21 08:56:04;;;;;;;12.55;1.27;;;3.40;99.90;;;;;;5000132;28;20401;-78
2022/01/21 08:58:30;;;;;;;19.00;1.95;;;3.50;99.90;;;;;;5029110;28;20040;-78
2022/01/21 09:00:56;;;;;;;16.77;1.73;;;3.50;99.90;;;;;;5046833;28;20048;-78
2022/01/21 09:03:22;;;;;;;16.40;1.70;;;3.60;99.90;;;;;;5046053;28;20044;-76
2022/01/21 09:05:50;;;;;;;11.05;1.38;;;3.70;99.90;;;;;;5046299;28;20375;-76
2022/01/21 09:08:18;;;;;;;17.10;2.03;;;3.70;99.90;;;;;;5029357;28;20131;-78
2022/01/21 09:10:44;;;;;;;18.67;2.60;;;3.70;99.90;;;;;;5045627;28;20045;-77
2022/01/21 09:13:10;;;;;;;17.58;2.20;;;3.80;99.90;;;;;;5030188;28;20686;-76
2022/01/21 09:15:37;;;;;;;23.23;2.55;;;4.20;99.90;;;;;;5028959;28;20131;-76
2022/01/21 09:18:05;;;;;;;15.35;2.65;;;5.20;99.90;;;;;;5046155;28;20095;-77
2022/01/21 09:20:36;;;;;;;17.30;3.38;;;3.90;99.90;;;;;;5029202;28;20081;-78
2022/01/21 09:23:02;;;;;;;20.20;2.13;;;4.00;99.90;;;;;;5045467;28;20521;-77
2022/01/21 09:25:28;;;;;;;15.43;1.85;;;4.00;99.90;;;;;;5045682;28;20060;-78
2022/01/21 09:27:59;;;;;;;9.52;2.10;;;4.60;99.90;;;;;;5028480;28;20045;-78
2022/01/21 09:30:25;;;;;;;21.17;2.03;;;4.10;99.90;;;;;;5030235;28;20041;-76
2022/01/21 09:32:54;;;;;;;15.95;2.25;;;4.10;99.90;;;;;;5045288;28;20342;-78
2022/01/21 09:35:19;;;;;;;17.05;1.88;;;4.10;99.90;;;;;;5029645;28;20422;-78
2022/01/21 09:37:45;;;;;;;18.17;2.03;;;4.20;99.90;;;;;;5028877;28;20052;-78
2022/01/21 09:40:12;;;;;;;14.23;1.83;;;4.20;99.90;;;;;;5045778;28;20079;-77
2022/01/21 09:42:38;;;;;;;18.88;1.80;;;4.00;99.90;;;;;;5045588;28;20484;-76
2022/01/21 09:45:09;;;;;;;29.77;3.67;;;4.30;99.90;;;;;;5045168;28;20037;-77
2022/01/21 09:47:46;;;;;;;11.93;1.45;;;4.40;99.90;;;;;;5045901;28;20156;-77
2022/01/21 09:50:16;;;;;;;15.70;2.20;;;4.50;99.90;;;;;;5044444;28;20048;-77
2022/01/21 09:52:44;;;;;;;27.95;3.40;;;4.60;99.90;;;;;;5029176;28;20053;-77
2022/01/21 09:55:12;;;;;;;12.00;1.73;;;4.70;99.90;;;;;;5046560;28;20417;-77
2022/01/21 09:57:41;;;;;;;17.65;2.03;;;4.70;99.90;;;;;;5045057;28;20485;-78
2022/01/21 10:00:11;;;;;;;17.48;2.35;;;4.70;99.90;;;;;;5045732;28;20402;-78
2022/01/21 10:02:38;;;;;;;15.30;2.42;;;4.80;99.90;;;;;;5027713;28;20048;-77
2022/01/21 10:05:04;;;;;;;9.48;1.30;;;4.70;99.90;;;;;;5046805;28;20040;-79
2022/01/21 10:07:31;;;;;;;15.73;1.70;;;4.80;99.90;;;;;;5044042;28;20075;-77
2022/01/21 10:10:06;;;;;;;17.50;1.90;;;4.70;99.90;;;;;;5046313;28;20069;-79
2022/01/21 10:12:32;;;;;;;15.57;1.88;;;4.70;99.90;;;;;;5045235;28;20045;-77
2022/01/21 10:14:58;;;;;;;11.18;1.83;;;4.70;99.90;;;;;;5046050;28;20476;-78
2022/01/21 10:17:23;;;;;;;14.90;2.47;;;4.70;99.90;;;;;;5046856;28;20048;-76
2022/01/21 10:19:51;;;;;;;15.27;1.55;;;4.80;99.90;;;;;;5044223;28;20045;-76
2022/01/21 10:22:23;;;;;;;15.75;2.05;;;5.00;99.90;;;;;;5045163;28;20099;-76
2022/01/21 10:24:59;;;;;;;15.38;1.85;;;5.20;99.90;;;;;;5044733;28;20072;-77
2022/01/21 10:27:27;;;;;;;24.00;2.03;;;5.30;99.90;;;;;;5027731;28;20175;-75
2022/01/21 10:29:54;;;;;;;13.40;1.63;;;5.40;99.90;;;;;;5045290;28;20544;-75
2022/01/21 10:32:40;;;;;;;9.48;1.65;;;5.50;99.90;;;;;;5044314;28;20486;-75
2022/01/21 10:35:20;;;;;;;23.92;1.75;;;5.70;99.90;;;;;;5045458;28;20410;-75
2022/01/21 10:37:46;;;;;;;8.65;1.55;;;5.80;99.90;;;;;;5044251;28;20045;-75
2022/01/21 10:40:12;;;;;;;9.55;1.52;;;5.90;99.90;;;;;;5044185;28;20051;-75
2022/01/21 10:42:38;;;;;;;18.63;1.55;;;5.90;99.90;;;;;;5046030;28;20398;-75
2022/01/21 10:45:07;;;;;;;16.38;1.60;;;5.90;99.90;;;;;;5044072;28;20047;-75
2022/01/21 10:47:36;;;;;;;9.65;1.10;;;5.90;99.90;;;;;;5046207;28;20059;-75
2022/01/21 10:50:05;;;;;;;9.63;0.88;;;5.90;99.90;;;;;;5045350;28;20049;-75
2022/01/21 10:52:45;;;;;;;7.10;1.27;;;6.00;99.90;;;;;;5044737;28;20048;-76
2022/01/21 10:55:46;;;;;;;10.57;1.13;;;6.00;99.90;;;;;;5044218;28;20052;-75
2022/01/21 10:58:18;;;;;;;13.85;1.30;;;6.10;99.90;;;;;;5044163;28;20135;-76
2022/01/21 11:01:20;;;;;;;15.53;1.37;;;6.20;99.90;;;;;;5046263;28;20061;-75
2022/01/21 11:04:00;;;;;;;9.73;1.45;;;6.30;99.90;;;;;;5007093;28;20061;-75
2022/01/21 11:06:35;;;;;;;23.02;2.35;;;6.40;99.90;;;;;;5047129;28;20060;-75
2022/01/21 11:09:19;;;;;;;13.55;1.48;;;6.60;99.90;;;;;;5048552;28;20044;-75
2022/01/21 11:11:47;;;;;;;5.90;1.25;;;6.50;99.90;;;;;;5048731;28;20505;-75
2022/01/21 11:14:18;;;;;;;15.30;1.67;;;6.60;99.90;;;;;;5047964;28;20037;-75
2022/01/21 11:16:46;;;;;;;13.20;1.10;;;6.70;99.90;;;;;;5049581;28;20049;-75
2022/01/21 11:19:24;;;;;;;15.77;1.10;;;6.80;99.90;;;;;;5049376;28;20521;-76
2022/01/21 11:21:56;;;;;;;8.57;1.00;;;6.90;99.90;;;;;;5050124;28;20174;-76
2022/01/21 11:24:25;;;;;;;13.00;1.17;;;7.00;99.90;;;;;;5047691;28;20367;-75
2022/01/21 11:27:11;;;;;;;11.35;1.10;;;7.00;99.90;;;;;;5049587;28;20298;-76
2022/01/21 11:29:37;;;;;;;13.35;1.58;;;7.00;99.90;;;;;;5049721;28;20052;-76
2022/01/21 11:32:04;;;;;;;24.73;1.40;;;7.20;99.90;;;;;;5047933;28;20052;-76
2022/01/21 11:34:31;;;;;;;11.80;1.08;;;7.20;99.90;;;;;;5049315;28;20178;-75
2022/01/21 11:36:58;;;;;;;7.85;1.13;;;7.30;99.90;;;;;;5048963;28;20087;-76
2022/01/21 11:39:24;;;;;;;13.90;1.38;;;7.30;99.90;;;;;;5049688;28;20156;-76
2022/01/21 11:41:53;;;;;;;17.65;1.83;;;7.40;99.90;;;;;;5048697;28;20053;-75
2022/01/21 11:44:21;;;;;;;18.55;1.55;;;7.40;99.90;;;;;;5049126;28;20461;-76
2022/01/21 11:47:03;;;;;;;11.43;1.42;;;7.40;99.90;;;;;;5049318;28;20076;-76
2022/01/21 11:49:32;;;;;;;5.60;0.73;;;7.30;99.90;;;;;;5032371;28;20045;-76
2022/01/21 11:52:19;;;;;;;7.93;1.58;;;7.40;99.90;;;;;;5031594;28;20049;-75
2022/01/21 11:54:45;;;;;;;9.77;0.95;;;7.40;99.90;;;;;;5046988;28;20049;-76
2022/01/21 11:57:12;;;;;;;15.65;1.23;;;7.40;99.90;;;;;;5046716;28;20048;-75
2022/01/21 11:59:52;;;;;;;14.80;1.83;;;7.30;99.90;;;;;;5047400;28;20076;-75
2022/01/21 12:02:27;;;;;;;9.45;0.70;;;7.30;99.90;;;;;;5048487;28;20127;-75
2022/01/21 12:04:57;;;;;;;6.03;1.42;;;7.20;99.90;;;;;;5049493;28;20033;-75
2022/01/21 12:07:35;;;;;;;14.75;1.23;;;7.20;99.90;;;;;;5046824;28;20052;-75
2022/01/21 12:10:02;;;;;;;12.73;0.98;;;7.30;99.90;;;;;;5030197;28;20135;-75
2022/01/21 12:12:47;;;;;;;13.00;1.00;;;7.30;99.90;;;;;;5048617;28;20401;-75
2022/01/21 12:15:29;;;;;;;20.35;1.40;;;7.30;99.90;;;;;;5047169;28;20110;-74
2022/01/21 12:18:07;;;;;;;5.90;0.85;;;7.30;99.90;;;;;;5047327;28;20048;-76
2022/01/21 12:20:35;;;;;;;11.02;1.30;;;7.30;99.90;;;;;;5048254;28;20398;-76
2022/01/21 12:23:15;;;;;;;13.52;1.13;;;7.30;99.90;;;;;;5046872;28;20044;-75
2022/01/21 12:26:19;;;;;;;8.38;1.02;;;7.40;99.90;;;;;;5048886;28;20037;-75
2022/01/21 12:28:47;;;;;;;9.88;0.85;;;7.30;99.90;;;;;;5048331;28;20044;-76
2022/01/21 12:31:15;;;;;;;12.88;1.25;;;7.30;99.90;;;;;;5048001;28;20045;-76
2022/01/21 12:36:21;;;;;;;7.55;1.02;;;7.30;99.90;;;;;;5046535;28;20717;-75
2022/01/21 12:41:15;;;;;;;15.30;1.73;;;7.70;99.90;;;;;;5047741;28;20054;-74
2022/01/21 12:43:41;;;;;;;10.52;1.50;;;7.30;99.90;;;;;;5046929;28;20425;-76
2022/01/21 12:46:18;;;;;;;17.25;1.50;;;7.30;99.90;;;;;;5046429;28;20036;-75
2022/01/21 12:48:46;;;;;;;12.77;1.30;;;7.20;99.90;;;;;;5047753;28;20045;-76
2022/01/21 12:51:16;;;;;;;18.25;1.67;;;7.20;99.90;;;;;;5047831;28;20126;-75
2022/01/21 12:56:53;;;;;;;15.38;1.60;;;7.20;99.90;;;;;;5047236;28;20099;-74
2022/01/21 12:59:21;;;;;;;18.20;1.65;;;7.90;99.90;;;;;;5047695;28;20060;-75
2022/01/21 13:01:48;;;;;;;9.73;1.38;;;7.20;99.90;;;;;;5047024;28;20478;-75
2022/01/21 13:04:32;;;;;;;18.33;1.48;;;7.20;99.90;;;;;;5047830;28;20052;-76
2022/01/21 13:07:37;;;;;;;16.15;1.08;;;7.20;99.90;;;;;;5046260;28;20044;-75
2022/01/21 13:10:12;;;;;;;12.32;1.38;;;7.20;99.90;;;;;;5047091;28;20045;-76
2022/01/21 13:13:01;;;;;;;17.20;1.15;;;7.20;99.90;;;;;;5047605;28;20044;-76
2022/01/21 13:15:50;;;;;;;10.23;1.38;;;7.20;99.90;;;;;;5047230;28;20056;-75
2022/01/21 13:18:19;;;;;;;7.55;1.08;;;7.20;99.90;;;;;;5047220;28;20037;-75
2022/01/21 13:21:06;;;;;;;9.52;1.15;;;7.20;99.90;;;;;;5047404;28;20068;-75
2022/01/21 13:23:37;;;;;;;23.33;1.98;;;7.20;99.90;;;;;;5046815;28;20048;-75
2022/01/21 13:26:25;;;;;;;15.30;1.60;;;8.10;99.90;;;;;;5047482;28;20056;-76
2022/01/21 13:29:08;;;;;;;10.93;1.48;;;7.20;99.90;;;;;;5038889;28;20107;-75
2022/01/21 13:31:53;;;;;;;14.43;2.08;;;7.10;99.90;;;;;;5045251;28;20053;-75
2022/01/21 13:34:20;;;;;;;16.08;1.80;;;7.10;99.90;;;;;;5045129;28;20107;-75
2022/01/21 13:36:49;;;;;;;12.73;1.73;;;7.30;99.90;;;;;;5046609;28;20088;-75
2022/01/21 13:39:19;;;;;;;11.27;1.10;;;6.90;99.90;;;;;;5045921;28;20383;-75
2022/01/21 13:41:52;;;;;;;16.77;2.42;;;6.90;99.90;;;;;;5045412;28;20052;-74
2022/01/21 13:44:44;;;;;;;16.30;1.25;;;6.90;99.90;;;;;;5046733;28;20041;-74
2022/01/21 13:47:31;;;;;;;11.63;1.65;;;6.80;99.90;;;;;;5047456;28;20049;-75
2022/01/21 13:50:09;;;;;;;10.43;1.20;;;6.90;99.90;;;;;;5045074;28;20056;-76
2022/01/21 13:52:53;;;;;;;20.05;1.75;;;6.90;99.90;;;;;;5044766;28;20489;-76
2022/01/21 13:55:28;;;;;;;14.45;1.40;;;6.90;99.90;;;;;;5045367;28;20132;-77
2022/01/21 13:57:57;;;;;;;7.43;1.20;;;7.00;99.90;;;;;;5044708;28;20154;-76